Friday, May 22, 2015, 7:36 PM EDT

KEZF, Fredericksburg, Shannon Airport

Location: Fredericksburg, VA, United States Lat: 38.267
Local Time: 7:36 PM EDT (23:36 GMT) Lon: -77.45
Time Zone: US/Eastern Elev: 85 ft

Show me the last for .
Show Decoded

2015-05-22 19:15 METAR KEZF 222315Z AUTO 24005KT 10SM SCT110 23/08 A3012 RMK AO2 T02330081 =
2015-05-22 18:55 METAR KEZF 222255Z AUTO 23007KT 10SM CLR 24/08 A3011 RMK AO2 T02360080 =
2015-05-22 18:35 METAR KEZF 222235Z AUTO 23007KT 10SM CLR 24/08 A3011 RMK AO2 T02350081 =
2015-05-22 18:15 METAR KEZF 222215Z AUTO 24008KT 10SM SCT100 24/08 A3011 RMK AO2 T02380077 =
2015-05-22 17:55 METAR KEZF 222155Z AUTO 24008KT 10SM SCT100 24/07 A3010 RMK AO2 T02430074 =
2015-05-22 17:35 METAR KEZF 222135Z AUTO 23009KT 10SM SCT090 24/07 A3011 RMK AO2 T02420071 =
2015-05-22 17:15 METAR KEZF 222115Z AUTO 22006G09KT 10SM SCT090 25/07 A3011 RMK AO2 T02480073 =
2015-05-22 16:35 METAR KEZF 222035Z AUTO 25010G15KT 10SM CLR 25/07 A3011 RMK AO2 T02470068 =
2015-05-22 16:15 METAR KEZF 222015Z AUTO 27006KT 10SM CLR 25/07 A3011 RMK AO2 T02450068 =
2015-05-22 15:55 METAR KEZF 221955Z AUTO 24008KT 210V270 10SM CLR 24/06 A3011 RMK AO2 T02400064 =
2015-05-22 15:10 METAR KEZF 221910Z AUTO 25006KT 10SM CLR 24/07 A3012 RMK AO2 T02390074 =
2015-05-22 14:55 METAR KEZF 221855Z AUTO 26006KT 10SM CLR 23/07 A3012 RMK AO2 T02340067 =
2015-05-22 14:35 METAR KEZF 221835Z AUTO 25007G14KT 10SM CLR 24/07 A3012 RMK AO2 T02360074 =
2015-05-22 14:15 METAR KEZF 221815Z AUTO 00000KT 10SM CLR 23/07 A3013 RMK AO2 T02310068 =
2015-05-22 13:50 METAR KEZF 221750Z AUTO 26008KT 10SM CLR 23/06 A3013 RMK AO2 T02260062 10230
                 20132 =
2015-05-22 13:35 METAR KEZF 221735Z AUTO 30012G21KT 250V310 10SM CLR 23/07 A3013 RMK AO2
                 T02290071 =
2015-05-22 13:15 METAR KEZF 221715Z AUTO 30012G19KT 10SM CLR 22/06 A3013 RMK AO2 T02220056 =
2015-05-22 12:55 METAR KEZF 221655Z AUTO 00000KT 10SM CLR 22/07 A3013 RMK AO2 T02190068 =
2015-05-22 12:35 METAR KEZF 221635Z AUTO 29007KT 10SM CLR 22/06 A3013 RMK AO2 T02160064 =
2015-05-22 12:15 METAR KEZF 221615Z AUTO 29007KT 10SM CLR 21/07 A3013 RMK AO2 T02130071 =
2015-05-22 11:55 METAR KEZF 221555Z AUTO 33006KT 290V360 10SM CLR 21/07 A3013 RMK AO2 T02060069 =
2015-05-22 11:35 METAR KEZF 221535Z AUTO 36005KT 10SM CLR 21/08 A3014 RMK AO2 T02050075 =
2015-05-22 11:15 METAR KEZF 221515Z AUTO 30008KT 240V330 10SM CLR 20/08 A3014 RMK AO2 T01960075 =
2015-05-22 10:55 METAR KEZF 221455Z AUTO 29006KT 10SM CLR 20/09 A3013 RMK AO2 T01960089 =
2015-05-22 10:35 METAR KEZF 221435Z AUTO 29005G14KT 10SM CLR 19/08 A3013 RMK AO2 T01850078 =
2015-05-22 10:15 METAR KEZF 221415Z AUTO 31008KT 10SM CLR 19/08 A3012 RMK AO2 T01860081 =
2015-05-22 09:55 METAR KEZF 221355Z AUTO 31008KT 10SM CLR 18/08 A3012 RMK AO2 T01760077 =
2015-05-22 09:35 METAR KEZF 221335Z AUTO 30008KT 10SM CLR 17/08 A3012 RMK AO2 T01700076 =
2015-05-22 09:15 METAR KEZF 221315Z AUTO 30010KT 10SM CLR 16/07 A3012 RMK AO2 T01610072 =
2015-05-22 08:55 METAR KEZF 221255Z AUTO 24004KT 10SM CLR 16/08 A3011 RMK AO2 T01550084 =
2015-05-22 08:35 METAR KEZF 221235Z AUTO 26006KT 10SM CLR 15/08 A3011 RMK AO2 T01480075 =
2015-05-22 08:15 METAR KEZF 221215Z AUTO 25003KT 10SM CLR 14/08 A3010 RMK AO2 T01380081 =
2015-05-22 07:55 METAR KEZF 221155Z AUTO 27004KT 10SM CLR 13/08 A3010 RMK AO2 70031 T01310083
                 10131 20092 =
2015-05-22 07:35 METAR KEZF 221135Z AUTO 00000KT 10SM CLR 13/09 A3009 RMK AO2 T01250092 =
2015-05-22 07:15 METAR KEZF 221115Z AUTO 00000KT 10SM CLR 12/10 A3008 RMK AO2 T01160098 =
2015-05-22 06:55 METAR KEZF 221055Z AUTO 22003KT 10SM CLR 10/10 A3007 RMK AO2 T01040101 =
2015-05-22 06:35 METAR KEZF 221035Z AUTO 23003KT 10SM CLR 10/10 A3006 RMK AO2 T00960096 =
2015-05-22 06:15 METAR KEZF 221015Z AUTO 22003KT 10SM CLR 10/09 A3006 RMK AO2 T00980093 =
2015-05-22 05:55 METAR KEZF 220955Z AUTO 27003KT 10SM CLR 11/09 A3005 RMK AO2 T01050090 =
2015-05-22 05:35 METAR KEZF 220935Z AUTO 00000KT 10SM CLR 11/10 A3004 RMK AO2 T01100095 =
2015-05-22 05:15 METAR KEZF 220915Z AUTO 30003KT 10SM CLR 11/10 A3004 RMK AO2 T01100097 =
2015-05-22 04:55 METAR KEZF 220855Z AUTO 00000KT 10SM CLR 11/10 A3003 RMK AO2 T01120099 =
2015-05-22 04:35 METAR KEZF 220835Z AUTO 00000KT 10SM CLR 12/10 A3002 RMK AO2 T01150102 =
2015-05-22 04:15 METAR KEZF 220815Z AUTO 28004KT 10SM CLR 12/10 A3002 RMK AO2 T01160102 =
2015-05-22 03:35 METAR KEZF 220735Z AUTO 31008KT 10SM CLR 12/10 A3000 RMK AO2 T01240101 =
2015-05-22 03:15 METAR KEZF 220715Z AUTO 30008KT 10SM CLR 12/11 A3000 RMK AO2 T01220108 =
2015-05-22 02:55 METAR KEZF 220655Z AUTO 30005KT 10SM CLR 12/11 A2999 RMK AO2 T01220111 =
2015-05-22 01:55 METAR KEZF 220555Z AUTO 31007KT 10SM CLR 13/12 A2998 RMK AO2 T01300117 10135
                 20122 401600122 =
2015-05-22 01:35 METAR KEZF 220535Z AUTO 31006KT 10SM CLR 13/12 A2998 RMK AO2 T01300122 =
2015-05-22 01:15 METAR KEZF 220515Z AUTO 31010KT 10SM CLR 13/13 A2998 RMK AO2 T01280125 =
2015-05-22 00:55 METAR KEZF 220455Z AUTO 32004KT 10SM CLR 13/13 A2997 RMK AO2 T01260126 =
2015-05-22 00:35 METAR KEZF 220435Z AUTO 31006KT 7SM CLR 12/12 A2997 RMK AO2 T01230123 =
2015-05-22 00:15 METAR KEZF 220415Z AUTO 30004KT 7SM CLR 12/12 A2996 RMK AO2 T01230123 =
2015-05-21 23:55 METAR KEZF 220355Z AUTO 00000KT 10SM SCT070 SCT090 12/12 A2996 RMK AO2 T01240124
                 =
2015-05-21 23:35 METAR KEZF 220335Z AUTO 31003KT 10SM SCT090 13/13 A2996 RMK AO2 T01250125 =
2015-05-21 23:15 METAR KEZF 220315Z AUTO 00000KT 10SM OVC090 13/13 A2996 RMK AO2 T01260126 =
2015-05-21 22:55 METAR KEZF 220255Z AUTO 30005KT 10SM SCT060 OVC090 12/12 A2996 RMK AO2 T01230123
                 =
2015-05-21 22:35 METAR KEZF 220235Z AUTO 30005KT 10SM SCT060 BKN090 12/12 A2997 RMK AO2 T01220122
                 =
2015-05-21 22:15 METAR KEZF 220215Z AUTO 00000KT 10SM SCT060 12/12 A2996 RMK AO2 T01230123 =
2015-05-21 21:55 METAR KEZF 220155Z AUTO 00000KT 10SM SCT060 13/13 A2995 RMK AO2 T01250125 =
2015-05-21 21:35 METAR KEZF 220135Z AUTO 32004KT 10SM CLR 13/13 A2995 RMK AO2 T01250125 =
2015-05-21 21:15 METAR KEZF 220115Z AUTO 33004KT 10SM SCT048 13/12 A2994 RMK AO2 T01260124 =
2015-05-21 20:35 METAR KEZF 220035Z AUTO 35005KT 10SM SCT013 SCT035 OVC055 13/13 A2993 RMK AO2
                 T01310125 =
2015-05-21 20:15 METAR KEZF 220015Z AUTO 33004KT 10SM OVC011 13/13 A2994 RMK AO2 T01330126 =
2015-05-21 19:55 METAR KEZF 212355Z AUTO 36004KT 10SM OVC009 13/13 A2994 RMK AO2 60006 T01340128
                 10138 20130 =

Support USWX by starting your Amazon purchase here.